createdAt,value
2018-12-03T00:02:14.350Z,99624.09
2018-12-03T00:04:43.312Z,99627.86
2018-12-03T00:07:12.245Z,99633.81
2018-12-03T00:09:42.112Z,99643.27
2018-12-03T00:12:13.070Z,99636.23
2018-12-03T00:14:42.981Z,99637.59
2018-12-03T00:17:13.940Z,99615.69
2018-12-03T00:19:43.819Z,99616.76
2018-12-03T00:22:12.682Z,99626.49
2018-12-03T00:24:41.566Z,99624.62
2018-12-03T00:27:10.512Z,99622.72
2018-12-03T00:29:40.394Z,99618.38
2018-12-03T00:32:11.332Z,99623.26
2018-12-03T00:34:40.285Z,99630.82
2018-12-03T00:37:09.189Z,99627.56
2018-12-03T00:39:38.066Z,99628.67
2018-12-03T00:42:06.950Z,99630.00
2018-12-03T00:44:36.813Z,99626.22
2018-12-03T00:47:06.782Z,99634.06
2018-12-03T00:49:35.725Z,99634.59
2018-12-03T00:52:04.622Z,99633.55
2018-12-03T00:54:38.464Z,99632.47
2018-12-03T00:57:07.848Z,99634.63
2018-12-03T00:59:36.704Z,99637.32
2018-12-03T01:02:11.877Z,99640.30
2018-12-03T01:04:41.777Z,99640.02
2018-12-03T01:07:10.657Z,99640.86
2018-12-03T01:09:39.586Z,99634.36
2018-12-03T01:12:08.456Z,99640.05
2018-12-03T01:14:37.345Z,99640.86
2018-12-03T01:17:07.256Z,99647.88
2018-12-03T01:19:37.270Z,99641.38
2018-12-03T01:22:07.199Z,99634.11
2018-12-03T01:24:38.171Z,99646.02
2018-12-03T01:27:07.045Z,99644.91
2018-12-03T01:29:35.989Z,99656.81
2018-12-03T01:32:05.984Z,99653.84
2018-12-03T01:34:35.946Z,99664.92
2018-12-03T01:37:06.880Z,99666.55
2018-12-03T01:39:35.766Z,99667.90
2018-12-03T01:42:04.691Z,99666.55
2018-12-03T01:44:35.610Z,99668.41
2018-12-03T01:47:04.599Z,99663.00
2018-12-03T01:49:38.402Z,99654.09
2018-12-03T01:52:09.360Z,99654.38
2018-12-03T01:54:38.240Z,99652.20
2018-12-03T01:57:07.152Z,99644.11
2018-12-03T01:59:37.071Z,99651.94
2018-12-03T02:02:08.149Z,99651.94
2018-12-03T02:04:39.344Z,99651.16
2018-12-03T02:07:08.223Z,99644.95
2018-12-03T02:09:37.082Z,99640.89
2018-12-03T02:12:06.011Z,99639.79
2018-12-03T02:14:34.879Z,99638.98
2018-12-03T02:17:03.754Z,99640.33
2018-12-03T02:19:32.643Z,99631.67
2018-12-03T02:22:02.625Z,99642.47
2018-12-03T02:24:31.973Z,99633.85
2018-12-03T02:27:01.415Z,99641.67
2018-12-03T02:29:31.738Z,99632.51
2018-12-03T02:32:01.052Z,99633.31
2018-12-03T02:34:30.366Z,99628.44
2018-12-03T02:36:59.819Z,99627.89
2018-12-03T02:39:29.887Z,99626.82
2018-12-03T02:42:00.839Z,99612.52
2018-12-03T02:44:29.710Z,99605.20
2018-12-03T02:46:58.602Z,99610.61
2018-12-03T02:49:28.512Z,99617.91
2018-12-03T02:51:58.471Z,99605.74
2018-12-03T02:54:27.333Z,99605.46
2018-12-03T02:56:56.224Z,99596.52
2018-12-03T02:59:25.093Z,99602.77
2018-12-03T03:01:54.202Z,99596.80
2018-12-03T03:04:23.076Z,99600.56
2018-12-03T03:06:54.094Z,99593.56
2018-12-03T03:09:22.986Z,99582.75
2018-12-03T03:11:52.911Z,99581.39
2018-12-03T03:14:22.811Z,99575.45
2018-12-03T03:16:52.986Z,99580.86
2018-12-03T03:19:22.895Z,99571.67
2018-12-03T03:21:51.776Z,99564.92
2018-12-03T03:24:20.718Z,99563.84
2018-12-03T03:26:49.621Z,99567.91
2018-12-03T03:29:18.497Z,99571.67
2018-12-03T03:31:48.445Z,99566.27
2018-12-03T03:34:17.376Z,99566.80
2018-12-03T03:36:46.298Z,99573.03
2018-12-03T03:39:16.263Z,99580.30
2018-12-03T03:41:46.179Z,99582.47
2018-12-03T03:44:16.072Z,99594.64
2018-12-03T03:46:44.948Z,99586.00
2018-12-03T03:49:13.818Z,99590.05
2018-12-03T03:51:45.007Z,99586.84
2018-12-03T03:54:15.207Z,99592.48
2018-12-03T03:56:44.083Z,99604.41
2018-12-03T03:59:15.059Z,99603.57
2018-12-03T04:01:44.948Z,99611.95
2018-12-03T04:04:13.825Z,99608.18
2018-12-03T04:06:43.776Z,99606.83
2018-12-03T04:09:12.773Z,99620.63
2018-12-03T04:11:42.673Z,99623.33
2018-12-03T04:14:11.548Z,99620.86
2018-12-03T04:16:40.432Z,99629.52
2018-12-03T04:19:09.309Z,99624.96
2018-12-03T04:21:39.232Z,99629.25
2018-12-03T04:24:09.186Z,99634.39
2018-12-03T04:26:38.031Z,99632.78
2018-12-03T04:29:06.979Z,99631.44
2018-12-03T04:31:36.868Z,99634.64
2018-12-03T04:34:07.818Z,99637.63
2018-12-03T04:36:36.698Z,99642.77
2018-12-03T04:39:07.763Z,99639.27
2018-12-03T04:41:36.821Z,99633.03
2018-12-03T04:44:06.761Z,99645.73
2018-12-03T04:46:36.677Z,99641.13
2018-12-03T04:49:06.765Z,99647.64
2018-12-03T04:51:35.711Z,99651.14
2018-12-03T04:54:06.607Z,99637.36
2018-12-03T04:56:36.544Z,99636.30
2018-12-03T04:59:06.463Z,99642.77
2018-12-03T05:01:35.483Z,99650.64
2018-12-03T05:04:04.426Z,99646.53
2018-12-03T05:06:34.375Z,99647.64
2018-12-03T05:09:05.447Z,99646.02
2018-12-03T05:11:35.415Z,99645.72
2018-12-03T05:14:05.626Z,99646.52
2018-12-03T05:16:35.658Z,99646.28
2018-12-03T05:19:05.729Z,99654.09
2018-12-03T05:21:35.699Z,99651.91
2018-12-03T05:24:05.603Z,99652.18
2018-12-03T05:26:35.494Z,99648.97
2018-12-03T05:29:05.637Z,99649.48
2018-12-03T05:31:34.492Z,99657.87
2018-12-03T05:34:03.394Z,99658.41
2018-12-03T05:36:32.275Z,99657.84
2018-12-03T05:39:01.159Z,99665.67
2018-12-03T05:41:30.037Z,99667.30
2018-12-03T05:43:58.951Z,99661.94
2018-12-03T05:46:27.860Z,99663.51
2018-12-03T05:48:57.858Z,99662.48
2018-12-03T05:51:27.810Z,99666.76
2018-12-03T05:53:56.826Z,99670.58
2018-12-03T05:56:26.727Z,99671.91
2018-12-03T05:58:57.773Z,99674.33
2018-12-03T06:01:28.701Z,99661.61
2018-12-03T06:03:58.594Z,99671.06
2018-12-03T06:06:28.695Z,99674.86
2018-12-03T06:08:58.638Z,99673.52
2018-12-03T06:11:28.542Z,99678.66
2018-12-03T06:13:58.491Z,99679.16
2018-12-03T06:16:27.415Z,99679.46
2018-12-03T06:18:56.277Z,99673.50
2018-12-03T06:21:26.172Z,99669.71
2018-12-03T06:23:55.271Z,99667.59
2018-12-03T06:26:24.161Z,99662.45
2018-12-03T06:28:53.005Z,99672.14
2018-12-03T06:31:22.969Z,99662.95
2018-12-03T06:33:51.840Z,99672.20
2018-12-03T06:36:21.758Z,99690.30
2018-12-03T06:38:52.760Z,99683.78
2018-12-03T06:41:22.737Z,99688.63
2018-12-03T06:43:53.687Z,99686.77
2018-12-03T06:46:24.626Z,99696.50
2018-12-03T06:48:54.526Z,99698.95
2018-12-03T06:51:24.475Z,99684.36
2018-12-03T06:53:53.422Z,99688.97
2018-12-03T06:56:23.333Z,99690.84
2018-12-03T06:58:53.387Z,99685.16
2018-12-03T07:01:23.278Z,99698.13
2018-12-03T07:03:54.355Z,99704.84
2018-12-03T07:06:24.316Z,99704.53
2018-12-03T07:08:54.378Z,99696.14
2018-12-03T07:11:24.443Z,99707.25
2018-12-03T07:13:54.386Z,99699.66
2018-12-03T07:16:24.316Z,99706.64
2018-12-03T07:18:54.220Z,99701.00
2018-12-03T07:21:25.152Z,99703.68
2018-12-03T07:23:55.109Z,99699.91
2018-12-03T07:26:25.180Z,99699.02
2018-12-03T07:28:55.094Z,99697.96
2018-12-03T07:31:24.022Z,99707.39
2018-12-03T07:33:54.932Z,99709.01
2018-12-03T07:36:24.848Z,99716.27
2018-12-03T07:38:55.778Z,99720.91
2018-12-03T07:41:24.682Z,99726.94
2018-12-03T07:43:54.586Z,99729.28
2018-12-03T07:46:25.546Z,99726.55
2018-12-03T07:48:59.460Z,99731.98
2018-12-03T07:51:28.322Z,99731.67
2018-12-03T07:53:57.206Z,99727.63
2018-12-03T07:56:26.078Z,99741.11
2018-12-03T07:58:56.054Z,99740.88
2018-12-03T08:01:25.942Z,99746.21
2018-12-03T08:03:55.877Z,99740.03
2018-12-03T08:06:24.867Z,99747.91
2018-12-03T08:08:55.052Z,99744.92
2018-12-03T08:11:25.020Z,99748.80
2018-12-03T08:13:55.023Z,99737.69
2018-12-03T08:16:23.893Z,99739.05
2018-12-03T08:18:57.927Z,99738.42
2018-12-03T08:21:26.807Z,99738.45
2018-12-03T08:24:01.979Z,99739.81
2018-12-03T08:26:31.990Z,99738.78
2018-12-03T08:29:02.899Z,99749.02
2018-12-03T08:31:44.659Z,99742.50
2018-12-03T08:34:13.526Z,99743.72
2018-12-03T08:36:42.501Z,99738.59
2018-12-03T08:39:12.486Z,99745.02
2018-12-03T08:41:42.380Z,99738.80
2018-12-03T08:44:11.278Z,99739.58
2018-12-03T08:46:41.193Z,99742.88
2018-12-03T08:49:10.090Z,99741.37
2018-12-03T08:51:39.033Z,99745.63
2018-12-03T08:54:07.960Z,99745.41
2018-12-03T08:56:36.854Z,99743.73
2018-12-03T08:59:05.738Z,99748.94
2018-12-03T09:01:34.581Z,99750.02
2018-12-03T09:04:06.668Z,99749.13
2018-12-03T09:06:35.531Z,99740.19
2018-12-03T09:09:07.721Z,99751.83
2018-12-03T09:11:36.855Z,99746.43
2018-12-03T09:14:05.991Z,99746.08
2018-12-03T09:16:34.921Z,99752.92
2018-12-03T09:19:03.830Z,99752.34
2018-12-03T09:21:32.685Z,99742.27
2018-12-03T09:24:02.650Z,99744.98
2018-12-03T09:26:31.542Z,99753.62
2018-12-03T09:29:01.463Z,99752.30
2018-12-03T09:31:30.433Z,99762.08
2018-12-03T09:34:00.354Z,99769.92
2018-12-03T09:36:34.177Z,99770.48
2018-12-03T09:39:12.293Z,99781.09
2018-12-03T09:41:41.475Z,99784.33
2018-12-03T09:44:11.446Z,99773.03
2018-12-03T09:46:40.381Z,99773.55
2018-12-03T09:49:09.312Z,99769.80
2018-12-03T09:51:38.366Z,99771.94
2018-12-03T09:54:08.603Z,99764.08
2018-12-03T09:56:42.862Z,99763.08
2018-12-03T09:59:13.554Z,99776.84
2018-12-03T10:01:42.914Z,99769.58
2018-12-03T10:04:16.505Z,99775.22
2018-12-03T10:06:46.494Z,99777.70
2018-12-03T10:09:16.936Z,99773.10
2018-12-03T10:11:45.820Z,99776.58
2018-12-03T10:14:17.982Z,99770.95
2018-12-03T10:16:47.084Z,99767.39
2018-12-03T10:19:15.974Z,99758.70
2018-12-03T10:21:46.660Z,99762.83
2018-12-03T10:24:16.970Z,99758.70
2018-12-03T10:26:46.948Z,99761.48
2018-12-03T10:29:17.808Z,99761.98
2018-12-03T10:31:47.752Z,99762.83
2018-12-03T10:34:18.945Z,99753.88
2018-12-03T10:36:52.974Z,99749.55
2018-12-03T10:39:28.548Z,99743.34
2018-12-03T10:42:11.838Z,99730.12
2018-12-03T10:44:41.841Z,99736.82
2018-12-03T10:47:11.784Z,99731.46
2018-12-03T10:49:41.813Z,99727.36
2018-12-03T10:52:10.919Z,99722.73
2018-12-03T10:54:42.242Z,99727.38
2018-12-03T10:57:12.432Z,99723.35
2018-12-03T10:59:51.642Z,99718.69
2018-12-03T11:02:42.427Z,99709.23
2018-12-03T11:05:17.682Z,99714.64
2018-12-03T11:07:47.602Z,99718.69
2018-12-03T11:10:17.996Z,99720.33
2018-12-03T11:12:51.789Z,99721.10
2018-12-03T11:15:22.514Z,99709.52
2018-12-03T11:17:51.406Z,99708.97
2018-12-03T11:20:21.365Z,99705.20
2018-12-03T11:22:51.310Z,99714.39
2018-12-03T11:25:28.982Z,99711.98
2018-12-03T11:28:00.415Z,99695.75
2018-12-03T11:30:30.657Z,99692.50
2018-12-03T11:33:00.595Z,99695.25
2018-12-03T11:35:31.129Z,99696.05
2018-12-03T11:38:12.408Z,99685.80
2018-12-03T11:40:49.861Z,99681.17
2018-12-03T11:43:19.810Z,99684.17
2018-12-03T11:45:49.716Z,99675.80
2018-12-03T11:48:19.598Z,99669.58
2018-12-03T11:50:49.552Z,99671.73
2018-12-03T11:53:19.471Z,99672.00
2018-12-03T11:55:48.468Z,99664.17
2018-12-03T11:58:17.457Z,99663.63
2018-12-03T12:00:46.436Z,99668.75
2018-12-03T12:03:16.371Z,99649.55
2018-12-03T12:05:45.252Z,99652.53
2018-12-03T12:08:16.234Z,99652.53
2018-12-03T12:10:46.224Z,99646.59
2018-12-03T12:13:16.144Z,99643.89
2018-12-03T12:15:46.007Z,99643.34
2018-12-03T12:18:16.176Z,99642.54
2018-12-03T12:20:50.073Z,99641.44
2018-12-03T12:23:20.187Z,99637.94
2018-12-03T12:25:50.157Z,99641.71
2018-12-03T12:28:21.114Z,99639.55
2018-12-03T12:30:50.002Z,99634.42
2018-12-03T12:33:18.913Z,99632.52
2018-12-03T12:35:48.854Z,99636.84
2018-12-03T12:38:19.366Z,99636.84
2018-12-03T12:40:49.798Z,99634.95
2018-12-03T12:43:19.725Z,99626.28
2018-12-03T12:45:58.231Z,99615.73
2018-12-03T12:48:28.134Z,99612.52
2018-12-03T12:50:58.058Z,99609.27
2018-12-03T12:53:29.170Z,99606.83
2018-12-03T12:55:59.094Z,99603.84
2018-12-03T12:58:29.073Z,99606.56
2018-12-03T13:00:59.948Z,99608.46
2018-12-03T13:03:30.965Z,99591.41
2018-12-03T13:06:00.989Z,99581.14
2018-12-03T13:08:29.937Z,99578.16
2018-12-03T13:10:59.875Z,99570.62
2018-12-03T13:13:29.881Z,99574.13
2018-12-03T13:15:58.775Z,99568.70
2018-12-03T13:18:28.754Z,99566.02
2018-12-03T13:20:58.688Z,99563.59
2018-12-03T13:23:27.568Z,99561.16
2018-12-03T13:25:56.533Z,99564.39
2018-12-03T13:28:25.372Z,99573.84
2018-12-03T13:30:54.345Z,99581.42
2018-12-03T13:33:23.338Z,99585.68
2018-12-03T13:35:52.330Z,99561.91
2018-12-03T13:38:31.643Z,99554.55
2018-12-03T13:41:01.540Z,99541.52
2018-12-03T13:43:31.578Z,99554.75
2018-12-03T13:46:01.533Z,99544.33
2018-12-03T13:48:30.451Z,99558.09
2018-12-03T13:51:00.399Z,99554.85
2018-12-03T13:53:30.361Z,99551.89
2018-12-03T13:56:00.257Z,99559.73
2018-12-03T13:58:29.261Z,99552.17
2018-12-03T14:00:58.150Z,99554.61
2018-12-03T14:03:30.340Z,99570.06
2018-12-03T14:06:21.110Z,99557.63
2018-12-03T14:10:03.066Z,99561.16
2018-12-03T14:12:38.745Z,99561.39
2018-12-03T14:15:19.351Z,99568.98
2018-12-03T14:18:05.620Z,99564.10
2018-12-03T14:20:39.174Z,99578.13
2018-12-03T14:23:10.996Z,99570.32
2018-12-03T14:25:40.887Z,99565.45
2018-12-03T14:28:09.793Z,99555.45
2018-12-03T14:30:39.000Z,99567.88
2018-12-03T14:33:08.107Z,99564.64
2018-12-03T14:35:38.003Z,99567.90
2018-12-03T14:38:08.024Z,99551.11
2018-12-03T14:40:37.888Z,99547.34
2018-12-03T14:43:07.883Z,99563.00
2018-12-03T14:45:37.832Z,99546.88
2018-12-03T14:48:08.866Z,99533.22
2018-12-03T14:50:38.804Z,99538.94
2018-12-03T14:53:07.958Z,99523.53
2018-12-03T14:55:37.645Z,99529.48
2018-12-03T14:58:07.957Z,99527.45
2018-12-03T15:00:38.463Z,99542.12
2018-12-03T15:03:08.828Z,99538.63
2018-12-03T15:05:39.313Z,99544.61
2018-12-03T15:08:09.775Z,99545.38
2018-12-03T15:10:40.159Z,99546.98
2018-12-03T15:13:10.582Z,99549.83
2018-12-03T15:15:41.027Z,99543.39
2018-12-03T15:18:11.450Z,99537.45
2018-12-03T15:20:47.404Z,99538.52
2018-12-03T15:23:16.687Z,99541.78
2018-12-03T15:25:47.231Z,99553.92
2018-12-03T15:28:17.431Z,99550.68
2018-12-03T15:30:50.344Z,99548.22
2018-12-03T15:33:20.398Z,99551.22
2018-12-03T15:35:50.313Z,99536.64
2018-12-03T15:38:20.210Z,99546.42
2018-12-03T15:40:50.114Z,99542.96
2018-12-03T15:43:20.066Z,99537.82
2018-12-03T15:45:50.968Z,99544.03
2018-12-03T15:48:20.961Z,99544.61
2018-12-03T15:50:50.915Z,99543.27
2018-12-03T15:53:20.839Z,99544.33
2018-12-03T15:55:49.726Z,99552.69
2018-12-03T15:58:20.654Z,99549.18
2018-12-03T16:00:51.571Z,99545.69
2018-12-03T16:03:21.520Z,99548.12
2018-12-03T16:05:51.413Z,99549.98
2018-12-03T16:08:20.276Z,99546.47
2018-12-03T16:10:50.250Z,99559.45
2018-12-03T16:13:20.236Z,99559.43
2018-12-03T16:15:50.177Z,99560.25
2018-12-03T16:18:19.063Z,99553.78
2018-12-03T16:20:50.289Z,99553.77
2018-12-03T16:23:21.485Z,99556.46
2018-12-03T16:25:52.594Z,99543.23
2018-12-03T16:28:23.536Z,99567.77
2018-12-03T16:30:53.456Z,99553.80
2018-12-03T16:33:23.424Z,99553.50
2018-12-03T16:35:53.554Z,99555.11
2018-12-03T16:38:23.594Z,99545.36
2018-12-03T16:40:53.548Z,99551.32
2018-12-03T16:43:23.514Z,99565.85
2018-12-03T16:45:53.450Z,99563.63
2018-12-03T16:48:23.370Z,99557.70
2018-12-03T16:50:54.759Z,99566.89
2018-12-03T16:53:24.778Z,99570.70
2018-12-03T16:55:53.726Z,99564.27
2018-12-03T16:58:23.616Z,99559.63
2018-12-03T17:00:52.564Z,99565.32
2018-12-03T17:03:22.613Z,99563.39
2018-12-03T17:05:51.509Z,99559.63
2018-12-03T17:08:21.461Z,99566.94
2018-12-03T17:10:51.382Z,99554.00
2018-12-03T17:13:21.278Z,99556.97
2018-12-03T17:15:52.225Z,99560.50
2018-12-03T17:18:22.217Z,99562.34
2018-12-03T17:21:00.312Z,99555.86
2018-12-03T17:24:40.387Z,99561.00
2018-12-03T17:27:13.268Z,99553.94
2018-12-03T17:29:44.539Z,99548.80
2018-12-03T17:32:17.347Z,99551.28
2018-12-03T17:34:48.815Z,99558.50
2018-12-03T17:37:16.364Z,99568.56
2018-12-03T17:39:46.369Z,99571.20
2018-12-03T17:42:19.274Z,99574.42
2018-12-03T17:44:48.244Z,99578.72
2018-12-03T17:47:21.067Z,99576.05
2018-12-03T17:49:51.294Z,99572.27
2018-12-03T17:52:21.214Z,99570.87
2018-12-03T17:54:52.155Z,99583.82
2018-12-03T17:57:22.146Z,99581.41
2018-12-03T17:59:51.079Z,99576.30
2018-12-03T18:02:22.048Z,99583.60
2018-12-03T18:04:52.932Z,99582.00
2018-12-03T18:07:21.896Z,99582.58
2018-12-03T18:09:51.997Z,99590.09
2018-12-03T18:12:21.877Z,99580.34
2018-12-03T18:14:51.854Z,99582.08
2018-12-03T18:17:21.827Z,99583.86
2018-12-03T18:19:52.094Z,99588.17
2018-12-03T18:22:22.071Z,99594.21
2018-12-03T18:24:51.998Z,99597.19
2018-12-03T18:27:22.892Z,99603.09
2018-12-03T18:29:53.862Z,99604.73
2018-12-03T18:32:24.764Z,99599.33
2018-12-03T18:34:58.699Z,99603.38
2018-12-03T18:37:33.184Z,99612.86
2018-12-03T18:40:02.119Z,99613.13
2018-12-03T18:42:31.184Z,99609.06
2018-12-03T18:45:01.111Z,99621.19
2018-12-03T18:47:32.180Z,99624.73
2018-12-03T18:50:05.026Z,99613.88
2018-12-03T18:52:34.972Z,99624.61
2018-12-03T18:55:04.929Z,99624.05
2018-12-03T18:57:35.106Z,99620.42
2018-12-03T19:00:06.455Z,99627.69
2018-12-03T19:02:36.399Z,99634.23
2018-12-03T19:05:06.416Z,99631.83
2018-12-03T19:07:36.471Z,99632.16
2018-12-03T19:10:08.119Z,99635.06
2018-12-03T19:12:44.334Z,99636.55
2018-12-03T19:15:14.341Z,99644.77
2018-12-03T19:17:43.839Z,99647.64
2018-12-03T19:20:13.703Z,99659.19
2018-12-03T19:22:45.785Z,99660.98
2018-12-03T19:25:17.587Z,99663.19
2018-12-03T19:27:48.284Z,99659.70
2018-12-03T19:30:19.159Z,99670.30
2018-12-03T19:32:49.934Z,99668.59
2018-12-03T19:35:20.071Z,99673.14
2018-12-03T19:37:50.080Z,99672.25
2018-12-03T19:40:21.033Z,99670.15
2018-12-03T19:42:50.936Z,99675.19
2018-12-03T19:45:21.387Z,99681.80
2018-12-03T19:47:52.317Z,99685.36
2018-12-03T19:50:23.150Z,99692.31
2018-12-03T19:52:54.657Z,99691.20
2018-12-03T19:55:26.069Z,99700.31
2018-12-03T19:58:06.744Z,99702.19
2018-12-03T20:00:35.667Z,99705.78
2018-12-03T20:03:05.627Z,99712.91
2018-12-03T20:05:34.638Z,99713.49
2018-12-03T20:08:04.554Z,99715.28
2018-12-03T20:10:35.573Z,99717.70
2018-12-03T20:13:05.537Z,99723.58
2018-12-03T20:15:34.457Z,99731.14
2018-12-03T20:18:04.521Z,99726.20
2018-12-03T20:20:39.446Z,99730.50
2018-12-03T20:23:18.314Z,99732.42
2018-12-03T20:26:06.173Z,99732.67
2018-12-03T20:28:43.746Z,99736.47
2018-12-03T20:37:43.698Z,99742.34
2018-12-03T20:41:23.732Z,99747.79
2018-12-03T20:43:55.942Z,99752.21
2018-12-03T20:47:50.026Z,99760.38
2018-12-03T20:58:59.380Z,99772.27
2018-12-03T21:01:35.924Z,99794.52
2018-12-03T21:04:05.860Z,99792.65
2018-12-03T21:06:35.852Z,99786.49
2018-12-03T21:09:06.180Z,99788.66
2018-12-03T21:11:37.206Z,99786.83
2018-12-03T21:14:07.184Z,99784.88
2018-12-03T21:16:37.116Z,99796.52
2018-12-03T21:19:06.123Z,99797.83
2018-12-03T21:21:36.146Z,99810.02
2018-12-03T21:24:07.143Z,99819.41
2018-12-03T21:26:38.115Z,99828.44
2018-12-03T21:29:09.134Z,99842.38
2018-12-03T21:31:40.162Z,99851.58
2018-12-03T21:34:10.656Z,99859.58
2018-12-03T21:36:43.412Z,99869.30
2018-12-03T21:39:12.496Z,99865.64
2018-12-03T21:41:41.622Z,99867.33
2018-12-03T21:44:14.883Z,99868.64
2018-12-03T21:46:43.860Z,99875.23
2018-12-03T21:49:14.821Z,99878.91
2018-12-03T21:51:45.720Z,99891.57
2018-12-03T21:54:15.630Z,99892.20
2018-12-03T21:56:45.643Z,99896.02
2018-12-03T21:59:14.565Z,99902.18
2018-12-03T22:01:44.510Z,99900.09
2018-12-03T22:04:14.594Z,99905.28
2018-12-03T22:07:27.168Z,99910.95
2018-12-03T22:10:06.198Z,99921.20
2018-12-03T22:15:38.455Z,99944.42
2018-12-03T22:18:29.887Z,99941.84
2018-12-03T22:21:02.359Z,99945.85
2018-12-03T22:23:46.703Z,99947.14
2018-12-03T22:26:31.760Z,99951.38
2018-12-03T22:29:07.107Z,99960.92
2018-12-03T22:31:38.413Z,99975.67
2018-12-03T22:34:22.879Z,99979.41
2018-12-03T22:36:48.943Z,99989.91
2018-12-03T22:39:29.706Z,100003.91
2018-12-03T22:42:07.917Z,100007.95
2018-12-03T22:47:39.998Z,100026.69
2018-12-03T22:50:12.635Z,100027.53
2018-12-03T22:52:47.413Z,100044.19
2018-12-03T22:55:34.717Z,100045.90
2018-12-03T22:58:20.203Z,100049.98
2018-12-03T23:00:56.734Z,100059.51
2018-12-03T23:03:40.025Z,100064.20
2018-12-03T23:06:18.732Z,100066.03
2018-12-03T23:08:52.934Z,100085.16
2018-12-03T23:11:25.143Z,100097.62
2018-12-03T23:13:56.297Z,100117.19
2018-12-03T23:16:34.870Z,100130.70
2018-12-03T23:19:14.933Z,100145.14
2018-12-03T23:21:48.980Z,100165.22
2018-12-03T23:24:33.627Z,100182.84
2018-12-03T23:27:16.854Z,100182.52
2018-12-03T23:29:48.541Z,100197.55
2018-12-03T23:32:20.487Z,100218.41
2018-12-03T23:34:54.472Z,100231.49
2018-12-03T23:37:43.687Z,100241.55
2018-12-03T23:40:24.236Z,100251.64
2018-12-03T23:43:02.562Z,100251.33
2018-12-03T23:45:36.597Z,100258.50
2018-12-03T23:51:05.603Z,100277.29
2018-12-03T23:53:36.817Z,100277.95
2018-12-03T23:56:24.779Z,100281.70
2018-12-03T23:59:02.601Z,100294.96
